Time;durP1;ratioP1;P1;durP2;ratioP2;P2;SDS_P1;SDS_P2;PMS_P1;PMS_P2;Temp;Humidity;BMP_temperature;BMP_pressure;BME280_temperature;BME280_humidity;BME280_pressure;Samples;Min_cycle;Max_cycle;Signal;HPM_P1;HPM_P2
2022/02/23 00:00:24;;;;;;;40.42;4.68;;;5.00;99.90;;;;;;4911822;28;20223;-90
2022/02/23 00:02:50;;;;;;;27.13;3.75;;;5.00;99.90;;;;;;4931312;28;20129;-90
2022/02/23 00:05:15;;;;;;;28.55;4.20;;;4.90;99.90;;;;;;4929788;28;20046;-91
2022/02/23 00:07:41;;;;;;;36.00;5.15;;;4.90;99.90;;;;;;4913496;28;20121;-89
2022/02/23 00:10:07;;;;;;;24.52;3.45;;;4.90;99.90;;;;;;4924056;28;20575;-86
2022/02/23 00:12:33;;;;;;;43.70;4.80;;;4.80;99.90;;;;;;4932493;28;20043;-89
2022/02/23 00:14:59;;;;;;;45.03;4.55;;;4.80;99.90;;;;;;4920210;28;20254;-89
2022/02/23 00:17:26;;;;;;;36.30;4.53;;;4.80;99.90;;;;;;4962770;28;20042;-87
2022/02/23 00:19:53;;;;;;;36.17;3.90;;;4.80;99.90;;;;;;4950250;28;20045;-93
2022/02/23 00:22:19;;;;;;;34.38;4.97;;;4.80;99.90;;;;;;4936712;28;20101;-88
2022/02/23 00:24:45;;;;;;;34.63;4.80;;;4.70;99.90;;;;;;4945069;28;20040;-87
2022/02/23 00:27:10;;;;;;;29.17;4.53;;;4.60;99.90;;;;;;4925064;28;20542;-88
2022/02/23 00:29:36;;;;;;;36.53;4.13;;;4.60;99.90;;;;;;4933666;28;20035;-88
2022/02/23 00:32:03;;;;;;;42.33;4.97;;;4.60;99.90;;;;;;4931381;28;20086;-86
2022/02/23 00:34:29;;;;;;;39.63;3.78;;;4.60;99.90;;;;;;4947769;28;20042;-88
2022/02/23 00:36:55;;;;;;;34.38;4.70;;;4.50;99.90;;;;;;4929136;28;20051;-88
2022/02/23 00:39:22;;;;;;;35.35;4.20;;;4.50;99.90;;;;;;4920841;28;20506;-88
2022/02/23 00:41:52;;;;;;;40.83;4.25;;;4.50;99.90;;;;;;4947048;28;20039;-89
2022/02/23 00:44:18;;;;;;;36.05;4.25;;;4.50;99.90;;;;;;4932100;28;20129;-87
2022/02/23 00:46:44;;;;;;;34.90;4.40;;;4.50;99.90;;;;;;4943804;28;20046;-89
2022/02/23 00:49:11;;;;;;;44.42;4.68;;;4.50;99.90;;;;;;4943955;28;20034;-89
2022/02/23 00:51:37;;;;;;;26.70;3.42;;;4.40;99.90;;;;;;4947547;28;20066;-89
2022/02/23 00:54:03;;;;;;;29.77;4.35;;;4.40;99.90;;;;;;4931890;28;20031;-89
2022/02/23 00:56:29;;;;;;;34.63;4.30;;;4.40;99.90;;;;;;4942902;28;20100;-89
2022/02/23 00:58:54;;;;;;;32.67;4.00;;;4.40;99.90;;;;;;4932342;28;20438;-90
2022/02/23 01:01:20;;;;;;;37.53;4.88;;;4.40;99.90;;;;;;4978318;28;20054;-89
2022/02/23 01:03:46;;;;;;;37.80;3.95;;;4.40;99.90;;;;;;4928861;28;20280;-89
2022/02/23 01:06:12;;;;;;;34.85;5.10;;;4.30;99.90;;;;;;4948643;28;20039;-89
2022/02/23 01:08:37;;;;;;;36.17;4.20;;;4.30;99.90;;;;;;4935814;28;20478;-88
2022/02/23 01:11:03;;;;;;;36.05;3.92;;;4.30;99.90;;;;;;4931341;28;20046;-89
2022/02/23 01:13:29;;;;;;;36.70;3.95;;;4.30;99.90;;;;;;4930788;28;20565;-87
2022/02/23 01:15:55;;;;;;;29.05;4.10;;;4.30;99.90;;;;;;4931968;28;20047;-87
2022/02/23 01:18:21;;;;;;;30.95;3.85;;;4.30;99.90;;;;;;4943053;28;20509;-86
2022/02/23 01:20:47;;;;;;;39.88;5.35;;;4.30;99.90;;;;;;4946073;28;20500;-88
2022/02/23 01:23:13;;;;;;;40.03;3.88;;;4.30;99.90;;;;;;4947876;28;20039;-88
2022/02/23 01:25:39;;;;;;;29.58;3.92;;;4.30;99.90;;;;;;4932751;28;20081;-89
2022/02/23 01:28:07;;;;;;;35.35;4.15;;;4.20;99.90;;;;;;4929459;28;20046;-89
2022/02/23 01:30:33;;;;;;;34.83;4.28;;;4.20;99.90;;;;;;4945801;28;20371;-88
2022/02/23 01:32:59;;;;;;;26.08;3.33;;;4.20;99.90;;;;;;4917604;28;20086;-89
2022/02/23 01:35:26;;;;;;;34.75;4.20;;;4.30;99.90;;;;;;4930476;28;20043;-89
2022/02/23 01:37:53;;;;;;;33.47;3.70;;;4.30;99.90;;;;;;4932367;28;20046;-89
2022/02/23 01:40:20;;;;;;;35.92;3.55;;;4.30;99.90;;;;;;4932689;28;20082;-88
2022/02/23 01:42:45;;;;;;;31.00;4.07;;;4.30;99.90;;;;;;4931717;28;20402;-87
2022/02/23 01:45:11;;;;;;;43.38;4.70;;;4.30;99.90;;;;;;4947677;28;20035;-86
2022/02/23 01:47:38;;;;;;;28.33;4.00;;;4.30;99.90;;;;;;4925984;28;20129;-87
2022/02/23 01:50:06;;;;;;;35.03;4.22;;;4.20;99.90;;;;;;4938558;28;20035;-88
2022/02/23 01:52:32;;;;;;;48.22;5.38;;;4.30;99.90;;;;;;4948711;28;20128;-87
2022/02/23 01:54:58;;;;;;;30.35;4.03;;;4.30;99.90;;;;;;4932678;28;20039;-88
2022/02/23 01:57:24;;;;;;;43.13;5.05;;;4.30;99.90;;;;;;4930939;28;20046;-87
2022/02/23 01:59:50;;;;;;;37.40;5.05;;;4.30;99.90;;;;;;4929338;29;20414;-88
2022/02/23 02:02:17;;;;;;;43.25;4.90;;;4.20;99.90;;;;;;4947399;28;20072;-89
2022/02/23 02:04:42;;;;;;;38.00;4.05;;;4.20;99.90;;;;;;4932096;28;20034;-88
2022/02/23 02:07:09;;;;;;;44.22;4.78;;;4.30;99.90;;;;;;4930820;28;20122;-88
2022/02/23 02:09:35;;;;;;;39.70;4.90;;;4.30;99.90;;;;;;4935207;28;20222;-91
2022/02/23 02:12:01;;;;;;;46.28;4.95;;;4.30;99.90;;;;;;4932595;28;20041;-89
2022/02/23 02:14:27;;;;;;;29.90;4.43;;;4.30;99.90;;;;;;4932797;28;20098;-88
2022/02/23 02:16:53;;;;;;;38.75;4.30;;;4.30;99.90;;;;;;4913177;28;20105;-89
2022/02/23 02:19:19;;;;;;;43.22;5.13;;;4.30;99.90;;;;;;4944305;28;20030;-87
2022/02/23 02:21:57;;;;;;;33.15;4.53;;;4.30;99.90;;;;;;4931140;28;20402;-89
2022/02/23 02:24:28;;;;;;;41.50;4.53;;;4.30;99.90;;;;;;4942119;28;20141;-91
2022/02/23 02:26:55;;;;;;;35.35;4.95;;;4.40;99.90;;;;;;4951901;28;20509;-89
2022/02/23 02:29:22;;;;;;;45.28;5.95;;;4.40;99.90;;;;;;4948351;28;20251;-89
2022/02/23 02:31:48;;;;;;;33.42;4.43;;;4.40;99.90;;;;;;4941876;28;20140;-87
2022/02/23 02:34:19;;;;;;;37.50;4.57;;;4.40;99.90;;;;;;4934429;28;20034;-88
2022/02/23 02:36:45;;;;;;;37.25;4.38;;;4.40;99.90;;;;;;4931234;28;20130;-87
2022/02/23 02:39:11;;;;;;;43.95;5.18;;;4.40;99.90;;;;;;4933875;28;20321;-88
2022/02/23 02:41:37;;;;;;;35.78;4.20;;;4.40;99.90;;;;;;4934959;28;20090;-87
2022/02/23 02:44:03;;;;;;;39.60;4.63;;;4.40;99.90;;;;;;4930048;28;20043;-88
2022/02/23 02:46:29;;;;;;;35.80;4.80;;;4.30;99.90;;;;;;4930842;28;20042;-88
2022/02/23 02:48:55;;;;;;;45.40;4.90;;;4.30;99.90;;;;;;4942820;28;20058;-87
2022/02/23 02:51:21;;;;;;;34.28;4.30;;;4.30;99.90;;;;;;4937711;28;20078;-87
2022/02/23 02:53:47;;;;;;;44.40;4.63;;;4.20;99.90;;;;;;4935628;28;20395;-87
2022/02/23 02:56:13;;;;;;;29.90;3.92;;;4.20;99.90;;;;;;4964925;28;20047;-90
2022/02/23 02:58:39;;;;;;;33.95;4.28;;;4.20;99.90;;;;;;4927102;29;20418;-87
2022/02/23 03:01:05;;;;;;;50.03;5.15;;;4.20;99.90;;;;;;4919876;28;20113;-87
2022/02/23 03:03:31;;;;;;;38.40;4.45;;;4.10;99.90;;;;;;4932697;28;20051;-90
2022/02/23 03:05:57;;;;;;;29.90;3.78;;;4.10;99.90;;;;;;4924522;28;20045;-88
2022/02/23 03:08:23;;;;;;;33.85;4.22;;;4.10;99.90;;;;;;4928976;28;20190;-87
2022/02/23 03:10:49;;;;;;;31.42;4.10;;;4.10;99.90;;;;;;4961044;28;20529;-88
2022/02/23 03:13:15;;;;;;;43.83;4.75;;;4.10;99.90;;;;;;4930317;28;20046;-87
2022/02/23 03:15:40;;;;;;;35.85;4.63;;;4.00;99.90;;;;;;4944698;28;20054;-87
2022/02/23 03:18:06;;;;;;;25.45;3.45;;;4.00;99.90;;;;;;4926943;28;20039;-87
2022/02/23 03:20:33;;;;;;;42.50;4.55;;;3.90;99.90;;;;;;4945316;28;20050;-87
2022/02/23 03:23:00;;;;;;;26.30;3.92;;;3.90;99.90;;;;;;4952988;28;20570;-87
2022/02/23 03:25:26;;;;;;;38.83;4.65;;;3.90;99.90;;;;;;4934924;28;20034;-87
2022/02/23 03:27:52;;;;;;;28.73;4.80;;;3.80;99.90;;;;;;4953348;28;20047;-87
2022/02/23 03:30:18;;;;;;;37.13;4.53;;;3.80;99.90;;;;;;4933476;28;20125;-87
2022/02/23 03:32:43;;;;;;;40.75;4.55;;;3.80;99.90;;;;;;4934294;28;20177;-87
2022/02/23 03:35:10;;;;;;;39.03;3.80;;;3.80;99.90;;;;;;4924624;28;20038;-87
2022/02/23 03:37:36;;;;;;;28.35;3.90;;;3.80;99.90;;;;;;4938173;28;20216;-87
2022/02/23 03:40:03;;;;;;;32.72;4.03;;;3.80;99.90;;;;;;4933126;28;20047;-87
2022/02/23 03:42:28;;;;;;;38.28;4.20;;;3.80;99.90;;;;;;4931185;28;20129;-87
2022/02/23 03:44:54;;;;;;;27.52;3.55;;;3.80;99.90;;;;;;4916528;29;20145;-88
2022/02/23 03:47:20;;;;;;;35.60;4.18;;;3.90;99.90;;;;;;4935123;28;20501;-88
2022/02/23 03:49:46;;;;;;;45.38;4.95;;;3.80;99.90;;;;;;4939897;28;20066;-87
2022/02/23 03:52:12;;;;;;;34.25;3.70;;;3.80;99.90;;;;;;4946388;28;20505;-87
2022/02/23 03:54:37;;;;;;;37.13;4.05;;;3.80;99.90;;;;;;4917980;28;20188;-88
2022/02/23 03:57:04;;;;;;;29.02;4.18;;;3.80;99.90;;;;;;4917755;28;20038;-87
2022/02/23 03:59:30;;;;;;;39.53;3.92;;;3.80;99.90;;;;;;4965305;28;20510;-87
2022/02/23 04:01:56;;;;;;;24.40;3.85;;;3.80;99.90;;;;;;4934733;28;20034;-87
2022/02/23 04:04:22;;;;;;;42.25;4.93;;;3.80;99.90;;;;;;4929282;28;20606;-87
2022/02/23 04:06:49;;;;;;;36.33;4.15;;;3.80;99.90;;;;;;4931503;28;20138;-87
2022/02/23 04:09:15;;;;;;;40.10;4.15;;;3.80;99.90;;;;;;4927431;28;20038;-87
2022/02/23 04:11:41;;;;;;;29.45;4.15;;;3.80;99.90;;;;;;4951575;28;20038;-88
2022/02/23 04:14:07;;;;;;;43.67;4.43;;;3.80;99.90;;;;;;4948229;28;20231;-87
2022/02/23 04:16:34;;;;;;;35.70;4.57;;;3.80;99.90;;;;;;4940326;28;20522;-87
2022/02/23 04:19:00;;;;;;;26.15;3.50;;;3.90;99.90;;;;;;4919941;28;20350;-87
2022/02/23 04:21:26;;;;;;;32.42;3.72;;;3.80;99.90;;;;;;4948285;28;20043;-88
2022/02/23 04:23:52;;;;;;;39.80;3.88;;;3.90;99.90;;;;;;4922058;28;20080;-88
2022/02/23 04:26:19;;;;;;;28.48;3.85;;;3.90;99.90;;;;;;4930365;28;20070;-87
2022/02/23 04:28:45;;;;;;;36.70;3.75;;;3.90;99.90;;;;;;4940008;28;20050;-86
2022/02/23 04:31:12;;;;;;;36.85;4.00;;;3.90;99.90;;;;;;4949134;28;20134;-88
2022/02/23 04:33:39;;;;;;;39.53;4.57;;;3.90;99.90;;;;;;4927136;28;20042;-85
2022/02/23 04:36:07;;;;;;;33.00;4.57;;;3.90;99.90;;;;;;4948970;28;20075;-87
2022/02/23 04:38:34;;;;;;;28.75;3.58;;;3.90;99.90;;;;;;4946510;28;20123;-86
2022/02/23 04:40:59;;;;;;;27.10;3.55;;;3.80;99.90;;;;;;4998290;28;20042;-87
2022/02/23 04:43:25;;;;;;;34.88;3.72;;;3.70;99.90;;;;;;4936318;28;20038;-87
2022/02/23 04:45:51;;;;;;;31.67;3.60;;;3.70;99.90;;;;;;4936062;29;20046;-87
2022/02/23 04:48:17;;;;;;;30.58;3.88;;;3.70;99.90;;;;;;4934886;28;20034;-86
2022/02/23 04:50:44;;;;;;;40.47;4.38;;;3.70;99.90;;;;;;4948944;28;20295;-87
2022/02/23 04:53:09;;;;;;;31.63;4.47;;;3.60;99.90;;;;;;4947296;28;20050;-87
2022/02/23 04:55:35;;;;;;;34.03;3.85;;;3.60;99.90;;;;;;4950668;28;20038;-87
2022/02/23 04:58:07;;;;;;;27.02;3.45;;;3.60;99.90;;;;;;4941437;28;20071;-86
2022/02/23 05:00:37;;;;;;;46.70;4.17;;;3.60;99.90;;;;;;4941695;28;20627;-87
2022/02/23 05:03:04;;;;;;;35.65;4.50;;;3.50;99.90;;;;;;4937625;28;20386;-86
2022/02/23 05:05:30;;;;;;;38.22;4.90;;;3.60;99.90;;;;;;4938961;28;20050;-86
2022/02/23 05:07:57;;;;;;;35.00;4.50;;;3.50;99.90;;;;;;4919316;28;20478;-87
2022/02/23 05:10:23;;;;;;;44.05;4.50;;;3.50;99.90;;;;;;4925109;28;20118;-87
2022/02/23 05:12:48;;;;;;;39.25;3.90;;;3.50;99.90;;;;;;4922050;28;20545;-87
2022/02/23 05:15:14;;;;;;;36.92;4.72;;;3.50;99.90;;;;;;4919100;28;20490;-87
2022/02/23 05:17:40;;;;;;;30.00;3.50;;;3.50;99.90;;;;;;4948197;28;20039;-87
2022/02/23 05:20:07;;;;;;;35.97;4.13;;;3.40;99.90;;;;;;4915210;28;20501;-86
2022/02/23 05:22:34;;;;;;;29.90;4.20;;;3.40;99.90;;;;;;4918408;28;20166;-87
2022/02/23 05:25:00;;;;;;;39.08;4.38;;;3.50;99.90;;;;;;4931976;28;20051;-86
2022/02/23 05:27:26;;;;;;;34.20;4.45;;;3.40;99.90;;;;;;4934041;28;20031;-87
2022/02/23 05:29:52;;;;;;;35.60;4.50;;;3.40;99.90;;;;;;4933597;28;20041;-87
2022/02/23 05:32:18;;;;;;;24.50;3.95;;;3.40;99.90;;;;;;4931556;28;20137;-86
2022/02/23 05:34:45;;;;;;;33.53;3.72;;;3.40;99.90;;;;;;4949805;28;20490;-87
2022/02/23 05:37:10;;;;;;;41.95;4.30;;;3.40;99.90;;;;;;4948490;28;20529;-86
2022/02/23 05:39:36;;;;;;;36.83;4.25;;;3.40;99.90;;;;;;4939272;28;20093;-87
2022/02/23 05:42:03;;;;;;;44.20;4.50;;;3.30;99.90;;;;;;4930166;28;20043;-87
2022/02/23 05:44:29;;;;;;;41.90;4.10;;;3.30;99.90;;;;;;4968098;28;20043;-86
2022/02/23 05:46:55;;;;;;;33.42;3.90;;;3.30;99.90;;;;;;4931561;28;20081;-87
2022/02/23 05:49:21;;;;;;;38.30;3.97;;;3.30;99.90;;;;;;4949495;28;20066;-86
2022/02/23 05:51:47;;;;;;;38.70;4.22;;;3.30;99.90;;;;;;4930988;28;20259;-86
2022/02/23 05:54:14;;;;;;;29.45;4.50;;;3.40;99.90;;;;;;4914942;28;20315;-87
2022/02/23 05:56:41;;;;;;;46.83;3.85;;;3.40;99.90;;;;;;4933383;28;20046;-86
2022/02/23 05:59:07;;;;;;;36.45;4.25;;;3.40;99.90;;;;;;4933817;28;20035;-86
2022/02/23 06:01:34;;;;;;;39.58;3.88;;;3.40;99.90;;;;;;4932150;28;20038;-87
2022/02/23 06:04:00;;;;;;;37.22;4.75;;;3.40;99.90;;;;;;4931021;28;20042;-86
2022/02/23 06:06:26;;;;;;;33.53;4.03;;;3.40;99.90;;;;;;4947712;28;20035;-86
2022/02/23 06:08:52;;;;;;;32.33;4.40;;;3.40;99.90;;;;;;4938261;28;20126;-86
2022/02/23 06:11:18;;;;;;;50.97;4.57;;;3.40;99.90;;;;;;4932138;28;20113;-87
2022/02/23 06:13:50;;;;;;;34.42;4.40;;;3.30;99.90;;;;;;4950103;28;20189;-87
2022/02/23 06:16:24;;;;;;;30.08;4.18;;;3.30;99.90;;;;;;4944175;28;20073;-87
2022/02/23 06:18:51;;;;;;;39.85;4.30;;;3.30;99.90;;;;;;4986169;28;20051;-87
2022/02/23 06:21:17;;;;;;;33.25;4.03;;;3.30;99.90;;;;;;4931928;28;20043;-87
2022/02/23 06:23:45;;;;;;;38.60;4.38;;;3.30;99.90;;;;;;4930313;29;20050;-86
2022/02/23 06:26:11;;;;;;;33.22;4.53;;;3.30;99.90;;;;;;4948614;28;20042;-86
2022/02/23 06:28:37;;;;;;;37.65;4.05;;;3.20;99.90;;;;;;4949132;28;20035;-86
2022/02/23 06:31:03;;;;;;;41.38;4.15;;;3.20;99.90;;;;;;4932952;28;20292;-87
2022/02/23 06:33:29;;;;;;;39.88;4.40;;;3.10;99.90;;;;;;4949338;28;20523;-87
2022/02/23 06:35:55;;;;;;;39.13;4.43;;;3.10;99.90;;;;;;4949020;28;20053;-87
2022/02/23 06:38:21;;;;;;;37.72;3.92;;;3.10;99.90;;;;;;4933280;28;20126;-86
2022/02/23 06:40:49;;;;;;;40.10;3.97;;;3.10;99.90;;;;;;4971150;28;20035;-86
2022/02/23 06:43:16;;;;;;;40.60;4.57;;;3.10;99.90;;;;;;4964497;28;20047;-86
2022/02/23 06:45:47;;;;;;;46.88;4.45;;;3.10;99.90;;;;;;4948751;28;20042;-87
2022/02/23 06:48:13;;;;;;;30.20;3.85;;;3.10;99.90;;;;;;4945166;28;20053;-86
2022/02/23 06:50:39;;;;;;;38.33;5.63;;;3.00;99.90;;;;;;4964937;28;20047;-86
2022/02/23 06:53:06;;;;;;;40.47;5.25;;;3.10;99.90;;;;;;4931050;28;20049;-87
2022/02/23 06:55:32;;;;;;;36.80;3.92;;;3.10;99.90;;;;;;4967670;28;20047;-86
2022/02/23 06:57:58;;;;;;;40.00;4.18;;;3.10;99.90;;;;;;4978893;28;20577;-86
2022/02/23 07:00:25;;;;;;;32.90;4.45;;;3.10;99.90;;;;;;4947634;28;20089;-86
2022/02/23 07:02:53;;;;;;;36.97;3.67;;;3.00;99.90;;;;;;4914866;29;20043;-86
2022/02/23 07:05:20;;;;;;;36.55;4.07;;;3.00;99.90;;;;;;4954162;28;20049;-87
2022/02/23 07:07:47;;;;;;;32.72;4.32;;;3.10;99.90;;;;;;4970539;28;20035;-87
2022/02/23 07:10:27;;;;;;;37.95;3.95;;;3.10;99.90;;;;;;4952199;28;20049;-87
2022/02/23 07:12:53;;;;;;;28.92;4.25;;;3.20;99.90;;;;;;4953244;28;20050;-87
2022/02/23 07:15:20;;;;;;;22.98;3.30;;;3.30;99.90;;;;;;4967812;28;20465;-87
2022/02/23 07:17:46;;;;;;;33.33;4.10;;;3.30;99.90;;;;;;4970864;28;20050;-88
2022/02/23 07:20:13;;;;;;;34.78;4.03;;;3.30;99.90;;;;;;4937178;28;20069;-86
2022/02/23 07:22:39;;;;;;;26.50;3.45;;;3.40;99.90;;;;;;4928415;28;20528;-87
2022/02/23 07:25:07;;;;;;;32.65;3.65;;;3.40;99.90;;;;;;4935231;28;20043;-87
2022/02/23 07:27:33;;;;;;;40.55;4.60;;;3.50;99.90;;;;;;4937428;28;20068;-86
2022/02/23 07:29:58;;;;;;;34.40;3.75;;;3.50;99.90;;;;;;4939533;28;20506;-86
2022/02/23 07:32:28;;;;;;;38.15;4.60;;;3.60;99.90;;;;;;4926663;28;20074;-86
2022/02/23 07:34:55;;;;;;;32.22;3.95;;;3.60;99.90;;;;;;4930298;28;20273;-86
2022/02/23 07:37:21;;;;;;;27.00;3.83;;;3.60;99.90;;;;;;4937257;28;20046;-87
2022/02/23 07:39:52;;;;;;;26.65;3.58;;;3.70;99.90;;;;;;4930801;28;20387;-86
2022/02/23 07:42:19;;;;;;;31.92;4.35;;;3.70;99.90;;;;;;4953325;28;20050;-86
2022/02/23 07:44:46;;;;;;;38.28;4.63;;;3.80;99.90;;;;;;4966154;28;20406;-87
2022/02/23 07:47:12;;;;;;;32.92;4.22;;;3.80;99.90;;;;;;4951027;28;20038;-86
2022/02/23 07:49:38;;;;;;;26.80;3.38;;;3.90;99.90;;;;;;4968265;28;20557;-87
2022/02/23 07:52:04;;;;;;;30.73;4.15;;;4.00;99.90;;;;;;4951593;28;20189;-87
2022/02/23 07:54:30;;;;;;;34.95;4.75;;;4.00;99.90;;;;;;4952852;28;20051;-87
2022/02/23 07:56:56;;;;;;;30.65;3.80;;;4.10;99.90;;;;;;4936005;28;20667;-86
2022/02/23 07:59:22;;;;;;;30.33;4.18;;;4.20;99.90;;;;;;4951853;28;20034;-86
2022/02/23 08:01:49;;;;;;;29.92;4.25;;;4.30;99.90;;;;;;4923750;28;20379;-86
2022/02/23 08:04:15;;;;;;;35.33;4.38;;;4.30;99.90;;;;;;4947642;28;20062;-87
2022/02/23 08:06:41;;;;;;;39.15;4.68;;;4.40;99.90;;;;;;4952668;28;20729;-88
2022/02/23 08:09:09;;;;;;;34.88;4.65;;;4.50;99.90;;;;;;4937773;28;20043;-87
2022/02/23 08:11:36;;;;;;;33.83;4.50;;;4.60;99.90;;;;;;4925976;28;20053;-87
2022/02/23 08:14:04;;;;;;;24.70;3.92;;;4.60;99.90;;;;;;4934299;28;20050;-86
2022/02/23 08:19:35;;;;;;;44.55;5.38;;;4.80;99.90;;;;;;4966072;28;20051;-87
2022/02/23 08:22:10;;;;;;;30.70;4.65;;;4.90;99.90;;;;;;4959662;28;20050;-87
2022/02/23 08:24:39;;;;;;;26.63;4.25;;;5.00;99.90;;;;;;4952242;28;20039;-87
2022/02/23 08:27:06;;;;;;;27.63;4.15;;;5.10;99.90;;;;;;4967034;28;20060;-86
2022/02/23 08:29:34;;;;;;;32.45;4.30;;;5.20;99.90;;;;;;4936700;28;20148;-86
2022/02/23 08:32:00;;;;;;;34.55;4.50;;;5.30;99.90;;;;;;4964727;28;20047;-86
2022/02/23 08:34:26;;;;;;;27.38;4.85;;;5.40;99.90;;;;;;4935730;28;20089;-86
2022/02/23 08:36:53;;;;;;;24.92;4.20;;;5.50;99.90;;;;;;4960638;28;20059;-86
2022/02/23 08:39:20;;;;;;;31.40;4.00;;;5.50;99.90;;;;;;4953847;28;20173;-86
2022/02/23 08:41:47;;;;;;;28.17;5.78;;;5.60;99.90;;;;;;4931349;28;20047;-86
2022/02/23 08:44:14;;;;;;;34.80;6.35;;;5.70;99.90;;;;;;4930039;28;20046;-86
2022/02/23 08:46:42;;;;;;;38.95;7.75;;;5.80;99.90;;;;;;4962102;28;20053;-86
2022/02/23 08:49:09;;;;;;;37.65;7.80;;;5.90;99.90;;;;;;4951907;28;20751;-85
2022/02/23 08:51:41;;;;;;;42.90;8.65;;;5.90;99.90;;;;;;4950103;28;20598;-86
2022/02/23 08:54:07;;;;;;;36.75;8.02;;;6.00;99.90;;;;;;4940762;28;20049;-85
2022/02/23 08:56:33;;;;;;;37.45;8.77;;;6.10;99.90;;;;;;4951033;28;20046;-86
2022/02/23 08:58:59;;;;;;;37.03;8.75;;;6.10;99.90;;;;;;4929934;28;20052;-86
2022/02/23 09:01:29;;;;;;;43.70;8.85;;;6.20;99.90;;;;;;4937001;28;20150;-86
2022/02/23 09:03:56;;;;;;;43.95;8.63;;;6.30;99.90;;;;;;4933971;28;20043;-87
2022/02/23 09:06:23;;;;;;;42.20;10.35;;;6.30;99.90;;;;;;4933335;28;20082;-85
2022/02/23 09:08:52;;;;;;;39.95;10.38;;;6.40;99.90;;;;;;4913086;28;20039;-85
2022/02/23 09:11:17;;;;;;;39.05;8.43;;;6.50;99.90;;;;;;4933468;28;20363;-86
2022/02/23 09:13:43;;;;;;;36.78;8.50;;;6.60;99.90;;;;;;4948024;28;20129;-85
2022/02/23 09:16:09;;;;;;;36.05;7.65;;;6.60;99.90;;;;;;4934452;28;20043;-86
2022/02/23 09:18:35;;;;;;;32.00;8.02;;;6.60;99.90;;;;;;4932841;28;20050;-85
2022/02/23 09:21:01;;;;;;;36.22;8.30;;;6.70;99.90;;;;;;4934258;28;20409;-87
2022/02/23 09:23:27;;;;;;;37.45;7.25;;;6.70;99.90;;;;;;4951963;28;20061;-87
2022/02/23 09:25:54;;;;;;;32.13;6.40;;;6.90;99.90;;;;;;4937335;28;20042;-86
2022/02/23 09:28:21;;;;;;;29.42;5.63;;;6.90;99.90;;;;;;4936116;28;20039;-86
2022/02/23 09:30:47;;;;;;;34.38;5.40;;;6.90;99.90;;;;;;4931936;28;20035;-85
2022/02/23 09:33:14;;;;;;;34.95;6.07;;;7.00;99.90;;;;;;4948695;28;20445;-85
2022/02/23 09:35:41;;;;;;;25.98;5.28;;;7.10;99.90;;;;;;4947995;28;20414;-87
2022/02/23 09:38:06;;;;;;;32.95;5.88;;;7.10;99.90;;;;;;4959358;23;20089;-84
2022/02/23 09:40:32;;;;;;;34.38;6.60;;;7.20;99.90;;;;;;4930911;29;20134;-86
2022/02/23 09:42:58;;;;;;;25.10;4.30;;;7.30;99.90;;;;;;4931500;28;20093;-85
2022/02/23 09:45:25;;;;;;;25.15;4.28;;;7.30;99.90;;;;;;4909371;28;20030;-85
2022/02/23 09:47:51;;;;;;;23.48;4.05;;;7.40;99.90;;;;;;4950594;28;20086;-86
2022/02/23 09:50:21;;;;;;;27.73;4.13;;;7.40;99.90;;;;;;4899183;29;20035;-85
2022/02/23 09:52:49;;;;;;;37.58;4.57;;;7.50;99.90;;;;;;4946658;28;20536;-86
2022/02/23 09:55:15;;;;;;;23.60;4.53;;;7.50;99.90;;;;;;4929931;29;20409;-85
2022/02/23 09:57:41;;;;;;;24.40;3.53;;;7.60;99.90;;;;;;4943199;28;20046;-86
2022/02/23 10:00:11;;;;;;;20.85;3.22;;;7.60;99.90;;;;;;4935054;29;20538;-85
2022/02/23 10:02:37;;;;;;;18.98;3.10;;;7.70;99.90;;;;;;4944472;28;20082;-85
2022/02/23 10:05:05;;;;;;;16.40;3.03;;;7.80;99.90;;;;;;4910243;29;20494;-85
2022/02/23 10:07:37;;;;;;;22.58;3.40;;;7.90;99.90;;;;;;4930578;28;20070;-87
2022/02/23 10:10:05;;;;;;;28.45;3.70;;;8.00;99.90;;;;;;4925338;29;20051;-88
2022/02/23 10:12:31;;;;;;;24.17;3.22;;;8.00;99.90;;;;;;4912190;28;20314;-87
2022/02/23 10:15:11;;;;;;;20.80;3.40;;;8.10;99.90;;;;;;4914776;29;20470;-86
2022/02/23 10:17:43;;;;;;;20.65;3.40;;;8.20;99.90;;;;;;4927333;29;20082;-88
2022/02/23 10:20:31;;;;;;;16.67;3.47;;;8.20;99.90;;;;;;4946341;28;20035;-87
2022/02/23 10:23:20;;;;;;;19.98;3.25;;;8.30;99.90;;;;;;4945923;28;20040;-87
2022/02/23 10:26:04;;;;;;;19.83;3.00;;;8.30;99.90;;;;;;4940553;28;20039;-86
2022/02/23 10:28:35;;;;;;;26.33;3.83;;;8.40;99.90;;;;;;4929917;29;20139;-88
2022/02/23 10:31:15;;;;;;;19.00;3.55;;;8.40;99.90;;;;;;4934190;29;20091;-86
2022/02/23 10:33:42;;;;;;;17.10;3.10;;;8.50;99.90;;;;;;4950055;29;20054;-85
2022/02/23 10:36:16;;;;;;;18.38;3.45;;;8.50;99.90;;;;;;4901707;29;20079;-87
2022/02/23 10:38:44;;;;;;;22.45;3.67;;;8.60;99.90;;;;;;4927467;29;20044;-86
2022/02/23 10:41:26;;;;;;;13.48;2.67;;;8.60;99.90;;;;;;4928335;29;20043;-87
2022/02/23 10:44:03;;;;;;;20.90;3.05;;;8.70;99.90;;;;;;4942510;28;20125;-87
2022/02/23 10:46:28;;;;;;;21.52;3.33;;;8.70;99.90;;;;;;4922833;29;20046;-86
2022/02/23 10:48:59;;;;;;;17.48;2.63;;;8.80;99.90;;;;;;4934299;28;20034;-84
2022/02/23 10:51:35;;;;;;;14.05;2.83;;;8.80;99.90;;;;;;4917368;29;20102;-92
2022/02/23 10:54:06;;;;;;;16.08;3.13;;;8.80;99.90;;;;;;4951936;29;20039;-90
2022/02/23 10:56:35;;;;;;;12.77;2.55;;;8.90;99.90;;;;;;4940959;29;20059;-90
2022/02/23 10:59:10;;;;;;;15.20;2.08;;;8.90;99.90;;;;;;4942175;29;20170;-89
2022/02/23 11:01:38;;;;;;;13.18;2.40;;;8.90;99.90;;;;;;4932246;29;20039;-85
2022/02/23 11:04:05;;;;;;;16.00;3.03;;;;;;;;;;4949339;28;20474;-88
2022/02/23 11:06:31;;;;;;;12.48;2.50;;;;;;;;;;4951860;29;20069;-87
2022/02/23 11:08:58;;;;;;;15.10;2.70;;;;;;;;;;4949225;28;20040;-89
2022/02/23 11:11:25;;;;;;;21.17;3.30;;;;;;;;;;4935049;29;20114;-88
2022/02/23 11:13:52;;;;;;;15.77;2.50;;;;;;;;;;4951880;28;20403;-88
2022/02/23 11:16:19;;;;;;;14.02;2.50;;;;;;;;;;4917912;29;20039;-89
2022/02/23 11:18:46;;;;;;;16.45;2.95;;;;;;;;;;4949864;28;20718;-89
2022/02/23 11:21:13;;;;;;;18.25;2.75;;;;;;;;;;4932250;29;20076;-87
2022/02/23 11:23:43;;;;;;;10.35;2.53;;;;;;;;;;4928948;29;20043;-87
2022/02/23 11:26:12;;;;;;;12.50;2.83;;;;;;;;;;4931433;29;20380;-88
2022/02/23 11:29:07;;;;;;;9.25;2.38;;;;;;;;;;4945495;28;20035;-86
2022/02/23 11:31:37;;;;;;;9.65;2.20;;;;;;;;;;4936523;28;20044;-88
2022/02/23 11:34:05;;;;;;;11.02;2.30;;;;;;;;;;4936593;29;20052;-88
2022/02/23 11:36:53;;;;;;;13.73;2.28;;;;;;;;;;4943317;29;20133;-89
2022/02/23 11:39:18;;;;;;;12.13;2.13;;;;;;;;;;4952041;29;20068;-87
2022/02/23 11:41:55;;;;;;;16.27;2.90;;;;;;;;;;4938321;29;20050;-87
2022/02/23 11:44:29;;;;;;;12.13;1.48;;;;;;;;;;4933346;29;20043;-88
2022/02/23 11:46:55;;;;;;;12.02;2.10;;;;;;;;;;4934763;29;20050;-87
2022/02/23 11:49:23;;;;;;;13.07;2.63;;;;;;;;;;4932833;28;20051;-86
2022/02/23 11:52:04;;;;;;;12.48;2.10;;;;;;;;;;4950123;28;20054;-87
2022/02/23 11:54:49;;;;;;;13.13;2.13;;;;;;;;;;4932775;29;20508;-87
2022/02/23 11:57:34;;;;;;;13.85;2.03;;;;;;;;;;4950821;29;20138;-89
2022/02/23 12:00:00;;;;;;;13.10;2.85;;;;;;;;;;4939814;28;20119;-88
2022/02/23 12:02:30;;;;;;;14.25;2.05;;;;;;;;;;4941914;28;20098;-89
2022/02/23 12:04:59;;;;;;;17.63;2.10;;;;;;;;;;4934696;29;20046;-87
2022/02/23 12:07:26;;;;;;;10.68;2.00;;;;;;;;;;4931711;29;20360;-88
2022/02/23 12:09:52;;;;;;;12.65;2.05;;;;;;;;;;4933771;28;20040;-89
2022/02/23 12:12:37;;;;;;;9.95;2.22;;;;;;;;;;4947803;29;20475;-87
2022/02/23 12:15:06;;;;;;;10.95;1.85;;;;;;;;;;4949319;28;20551;-87
2022/02/23 12:17:52;;;;;;;19.20;2.50;;;;;;;;;;4936904;29;20046;-89
2022/02/23 12:20:38;;;;;;;12.27;2.97;;;;;;;;;;4933058;29;20063;-88
2022/02/23 12:23:08;;;;;;;9.43;2.15;;;;;;;;;;4945323;28;20071;-89
2022/02/23 12:25:47;;;;;;;9.63;2.10;;;;;;;;;;4948967;28;20043;-89
2022/02/23 12:28:16;;;;;;;8.65;1.80;;;;;;;;;;4946223;28;20063;-88
2022/02/23 12:30:47;;;;;;;11.43;2.10;;;;;;;;;;4949903;29;20035;-89
2022/02/23 12:33:15;;;;;;;6.22;1.65;;;;;;;;;;4950757;29;20094;-87
2022/02/23 12:35:42;;;;;;;12.90;2.08;;;;;;;;;;4947081;28;20771;-89
2022/02/23 12:38:09;;;;;;;11.95;2.70;;;;;;;;;;4918628;29;20039;-90
2022/02/23 12:40:35;;;;;;;15.82;1.98;;;;;;;;;;4947593;28;20047;-90
2022/02/23 12:43:08;;;;;;;11.05;2.30;;;;;;;;;;4916991;28;20054;-89
2022/02/23 12:45:51;;;;;;;7.50;1.73;;;;;;;;;;4946499;29;20082;-88
2022/02/23 12:48:17;;;;;;;8.20;1.70;;;;;;;;;;4944799;28;20402;-88
2022/02/23 12:50:43;;;;;;;10.82;1.98;;;;;;;;;;4935453;29;20043;-89
2022/02/23 12:53:10;;;;;;;8.98;2.08;;;;;;;;;;4921003;29;21014;-89
2022/02/23 12:55:36;;;;;;;9.88;1.77;;;;;;;;;;4936409;28;20296;-88
2022/02/23 12:58:05;;;;;;;9.20;1.77;;;;;;;;;;4936315;29;20137;-89
2022/02/23 13:00:31;;;;;;;8.98;1.95;;;;;;;;;;4932404;29;20067;-89
2022/02/23 13:03:06;;;;;;;7.75;1.75;;;;;;;;;;4916730;29;20039;-88
2022/02/23 13:05:35;;;;;;;11.43;1.80;;;;;;;;;;4948193;28;20058;-89
2022/02/23 13:08:04;;;;;;;8.15;1.50;;;;;;;;;;4940685;28;20065;-87